createdAt,value
2022-11-21T00:00:01.163Z,-0.6
2022-11-21T00:01:01.106Z,-0.6
2022-11-21T00:02:01.104Z,-0.6
2022-11-21T00:03:01.126Z,-0.7
2022-11-21T00:04:01.118Z,-0.6
2022-11-21T00:05:01.369Z,-0.6
2022-11-21T00:06:02.066Z,-0.7
2022-11-21T00:07:01.184Z,-0.7
2022-11-21T00:08:01.175Z,-0.7
2022-11-21T00:09:01.162Z,-0.6
2022-11-21T00:10:01.052Z,-0.6
2022-11-21T00:11:01.069Z,-0.6
2022-11-21T00:12:01.082Z,-0.6
2022-11-21T00:13:01.057Z,-0.6
2022-11-21T00:14:01.089Z,-0.6
2022-11-21T00:15:01.324Z,-0.6
2022-11-21T00:16:01.123Z,-0.6
2022-11-21T00:17:01.397Z,-0.6
2022-11-21T00:18:01.245Z,-0.6
2022-11-21T00:19:01.367Z,-0.6
2022-11-21T00:20:01.135Z,-0.6
2022-11-21T00:21:01.242Z,-0.6
2022-11-21T00:22:01.540Z,-0.6
2022-11-21T00:23:01.258Z,-0.6
2022-11-21T00:24:01.160Z,-0.5
2022-11-21T00:25:01.178Z,-0.5
2022-11-21T00:26:01.074Z,-0.6
2022-11-21T00:27:01.421Z,-0.6
2022-11-21T00:28:01.082Z,-0.6
2022-11-21T00:29:01.376Z,-0.6
2022-11-21T00:30:01.451Z,-0.6
2022-11-21T00:31:02.031Z,-0.6
2022-11-21T00:32:01.111Z,-0.5
2022-11-21T00:33:01.106Z,-0.6
2022-11-21T00:34:01.119Z,-0.5
2022-11-21T00:35:01.153Z,-0.5
2022-11-21T00:36:01.136Z,-0.5
2022-11-21T00:37:01.617Z,-0.5
2022-11-21T00:38:02.572Z,-0.5
2022-11-21T00:39:01.231Z,-0.5
2022-11-21T00:40:01.156Z,-0.5
2022-11-21T00:41:01.267Z,-0.5
2022-11-21T00:42:01.985Z,-0.5
2022-11-21T00:43:01.991Z,-0.5
2022-11-21T00:44:01.096Z,-0.5
2022-11-21T00:45:01.472Z,-0.5
2022-11-21T00:46:02.332Z,-0.5
2022-11-21T00:47:01.090Z,-0.5
2022-11-21T00:48:01.137Z,-0.6
2022-11-21T00:49:01.095Z,-0.5
2022-11-21T00:50:01.050Z,-0.5
2022-11-21T00:51:01.705Z,-0.5
2022-11-21T00:52:01.128Z,-0.5
2022-11-21T00:53:01.109Z,-0.5
2022-11-21T00:54:00.915Z,-0.5
2022-11-21T00:55:01.266Z,-0.5
2022-11-21T00:56:02.851Z,-0.5
2022-11-21T00:57:01.148Z,-0.5
2022-11-21T00:58:01.175Z,-0.5
2022-11-21T00:59:01.109Z,-0.5
2022-11-21T01:00:00.771Z,-0.5
2022-11-21T01:01:06.074Z,-0.5
2022-11-21T01:02:02.175Z,-0.5
2022-11-21T01:03:01.819Z,-0.5
2022-11-21T01:04:01.271Z,-0.5
2022-11-21T01:05:02.121Z,-0.5
2022-11-21T01:06:08.716Z,-0.5
2022-11-21T01:07:01.246Z,-0.5
2022-11-21T01:08:01.130Z,-0.5
2022-11-21T01:09:01.929Z,-0.5
2022-11-21T01:10:01.848Z,-0.5
2022-11-21T01:11:12.659Z,-0.5
2022-11-21T01:12:01.141Z,-0.5
2022-11-21T01:13:01.143Z,-0.5
2022-11-21T01:14:01.175Z,-0.5
2022-11-21T01:15:01.163Z,-0.5
2022-11-21T01:16:14.360Z,-0.5
2022-11-21T01:17:02.613Z,-0.5
2022-11-21T01:18:02.079Z,-0.5
2022-11-21T01:19:01.429Z,-0.5
2022-11-21T01:20:01.076Z,-0.5
2022-11-21T01:21:01.089Z,-0.5
2022-11-21T01:22:01.850Z,-0.5
2022-11-21T01:23:01.108Z,-0.5
2022-11-21T01:24:01.117Z,-0.5
2022-11-21T01:25:01.138Z,-0.5
2022-11-21T01:26:01.435Z,-0.5
2022-11-21T01:27:01.245Z,-0.5
2022-11-21T01:28:01.260Z,-0.5
2022-11-21T01:29:02.352Z,-0.5
2022-11-21T01:30:01.890Z,-0.5
2022-11-21T01:31:02.072Z,-0.5
2022-11-21T01:32:01.068Z,-0.5
2022-11-21T01:33:01.081Z,-0.5
2022-11-21T01:34:01.095Z,-0.4
2022-11-21T01:35:01.103Z,-0.5
2022-11-21T01:36:01.362Z,-0.5
2022-11-21T01:37:01.083Z,-0.5
2022-11-21T01:38:01.114Z,-0.5
2022-11-21T01:39:01.655Z,-0.5
2022-11-21T01:40:01.119Z,-0.5
2022-11-21T01:41:01.126Z,-0.5
2022-11-21T01:42:01.137Z,-0.5
2022-11-21T01:43:01.136Z,-0.5
2022-11-21T01:44:01.329Z,-0.5
2022-11-21T01:45:01.452Z,-0.5
2022-11-21T01:46:01.189Z,-0.5
2022-11-21T01:47:01.065Z,-0.5
2022-11-21T01:48:01.160Z,-0.5
2022-11-21T01:49:01.058Z,-0.5
2022-11-21T01:50:01.072Z,-0.5
2022-11-21T01:51:01.084Z,-0.5
2022-11-21T01:52:01.225Z,-0.5
2022-11-21T01:53:01.457Z,-0.5
2022-11-21T01:54:01.106Z,-0.5
2022-11-21T01:55:01.409Z,-0.5
2022-11-21T01:56:01.141Z,-0.5
2022-11-21T01:57:01.135Z,-0.5
2022-11-21T01:58:01.795Z,-0.5
2022-11-21T01:59:01.510Z,-0.4
2022-11-21T02:00:01.168Z,-0.5
2022-11-21T02:01:01.135Z,-0.5
2022-11-21T02:02:01.153Z,-0.5
2022-11-21T02:03:01.141Z,-0.5
2022-11-21T02:04:01.172Z,-0.5
2022-11-21T02:05:01.360Z,-0.4
2022-11-21T02:06:02.030Z,-0.5
2022-11-21T02:07:01.493Z,-0.5
2022-11-21T02:08:01.087Z,-0.5
2022-11-21T02:09:01.079Z,-0.5
2022-11-21T02:10:01.091Z,-0.5
2022-11-21T02:11:01.104Z,-0.5
2022-11-21T02:12:01.101Z,-0.5
2022-11-21T02:13:01.334Z,-0.5
2022-11-21T02:14:02.216Z,-0.5
2022-11-21T02:15:02.966Z,-0.5
2022-11-21T02:16:01.170Z,-0.5
2022-11-21T02:17:01.238Z,-0.5
2022-11-21T02:18:01.081Z,-0.4
2022-11-21T02:19:01.149Z,-0.5
2022-11-21T02:20:01.148Z,-0.5
2022-11-21T02:21:01.225Z,-0.5
2022-11-21T02:22:02.148Z,-0.5
2022-11-21T02:23:04.139Z,-0.5
2022-11-21T02:24:01.316Z,-0.5
2022-11-21T02:25:01.093Z,-0.5
2022-11-21T02:26:01.187Z,-0.5
2022-11-21T02:27:03.870Z,-0.5
2022-11-21T02:28:01.969Z,-0.5
2022-11-21T02:29:01.825Z,-0.5
2022-11-21T02:30:01.515Z,-0.5
2022-11-21T02:31:01.263Z,-0.5
2022-11-21T02:32:02.808Z,-0.5
2022-11-21T02:33:01.930Z,-0.5
2022-11-21T02:34:01.144Z,-0.5
2022-11-21T02:35:01.134Z,-0.5
2022-11-21T02:36:01.153Z,-0.5
2022-11-21T02:37:06.188Z,-0.5
2022-11-21T02:38:01.460Z,-0.5
2022-11-21T02:39:01.069Z,-0.5
2022-11-21T02:40:01.069Z,-0.5
2022-11-21T02:41:01.073Z,-0.5
2022-11-21T02:42:08.901Z,-0.5
2022-11-21T02:43:01.090Z,-0.5
2022-11-21T02:44:01.066Z,-0.5
2022-11-21T02:45:01.117Z,-0.5
2022-11-21T02:46:01.117Z,-0.6
2022-11-21T02:47:11.403Z,-0.6
2022-11-21T02:48:04.198Z,-0.5
2022-11-21T02:49:02.667Z,-0.5
2022-11-21T02:50:01.805Z,-0.5
2022-11-21T02:51:01.345Z,-0.5
2022-11-21T02:52:14.356Z,-0.5
2022-11-21T02:53:01.185Z,-0.5
2022-11-21T02:54:01.061Z,-0.5
2022-11-21T02:55:01.352Z,-0.5
2022-11-21T02:56:01.461Z,-0.5
2022-11-21T02:57:01.197Z,-0.5
2022-11-21T02:58:04.833Z,-0.5
2022-11-21T02:59:01.075Z,-0.5
2022-11-21T03:00:01.061Z,-0.5
2022-11-21T03:01:01.137Z,-0.5
2022-11-21T03:02:01.803Z,-0.5
2022-11-21T03:03:02.047Z,-0.5
2022-11-21T03:04:02.487Z,-0.5
2022-11-21T03:05:01.506Z,-0.5
2022-11-21T03:06:01.136Z,-0.5
2022-11-21T03:07:02.010Z,-0.5
2022-11-21T03:08:01.144Z,-0.5
2022-11-21T03:09:01.166Z,-0.5
2022-11-21T03:10:01.152Z,-0.5
2022-11-21T03:11:01.073Z,-0.5
2022-11-21T03:12:01.311Z,-0.5
2022-11-21T03:13:01.748Z,-0.5
2022-11-21T03:14:01.426Z,-0.5
2022-11-21T03:15:01.087Z,-0.5
2022-11-21T03:16:01.068Z,-0.5
2022-11-21T03:17:01.124Z,-0.5
2022-11-21T03:18:01.141Z,-0.5
2022-11-21T03:19:01.843Z,-0.5
2022-11-21T03:20:01.127Z,-0.5
2022-11-21T03:21:01.054Z,-0.5
2022-11-21T03:22:01.064Z,-0.5
2022-11-21T03:23:01.509Z,-0.5
2022-11-21T03:24:01.040Z,-0.5
2022-11-21T03:25:01.150Z,-0.5
2022-11-21T03:26:01.164Z,-0.5
2022-11-21T03:27:01.048Z,-0.6
2022-11-21T03:28:01.057Z,-0.6
2022-11-21T03:29:01.119Z,-0.6
2022-11-21T03:30:01.248Z,-0.6
2022-11-21T03:31:01.155Z,-0.6
2022-11-21T03:32:01.173Z,-0.6
2022-11-21T03:33:01.108Z,-0.5
2022-11-21T03:34:01.062Z,-0.6
2022-11-21T03:35:01.733Z,-0.5
2022-11-21T03:36:00.714Z,-0.5
2022-11-21T03:37:00.396Z,-0.6
2022-11-21T03:38:00.087Z,-0.6
2022-11-21T03:38:59.733Z,-0.6
2022-11-21T03:40:01.370Z,-0.6
2022-11-21T03:41:02.051Z,-0.5
2022-11-21T03:42:01.162Z,-0.6
2022-11-21T03:43:01.160Z,-0.6
2022-11-21T03:44:00.975Z,-0.6
2022-11-21T03:45:00.668Z,-0.6
2022-11-21T03:46:00.377Z,-0.6
2022-11-21T03:47:00.054Z,-0.5
2022-11-21T03:47:59.646Z,-0.6
2022-11-21T03:49:01.474Z,-0.5
2022-11-21T03:50:04.053Z,-0.5
2022-11-21T03:51:01.130Z,-0.5
2022-11-21T03:52:01.116Z,-0.5
2022-11-21T03:53:01.135Z,-0.5
2022-11-21T03:54:01.516Z,-0.5
2022-11-21T03:55:01.904Z,-0.5
2022-11-21T03:56:01.181Z,-0.5
2022-11-21T03:57:01.151Z,-0.6
2022-11-21T03:58:01.141Z,-0.5
2022-11-21T03:59:01.184Z,-0.5
2022-11-21T04:00:01.794Z,-0.6
2022-11-21T04:01:01.212Z,-0.6
2022-11-21T04:02:01.484Z,-0.6
2022-11-21T04:03:01.081Z,-0.6
2022-11-21T04:04:01.085Z,-0.6
2022-11-21T04:05:01.095Z,-0.5
2022-11-21T04:06:01.107Z,-0.6
2022-11-21T04:07:01.152Z,-0.6
2022-11-21T04:08:01.341Z,-0.6
2022-11-21T04:09:01.922Z,-0.6
2022-11-21T04:10:01.151Z,-0.6
2022-11-21T04:11:01.139Z,-0.6
2022-11-21T04:12:06.417Z,-0.6
2022-11-21T04:13:04.000Z,-0.6
2022-11-21T04:14:01.787Z,-0.6
2022-11-21T04:15:01.187Z,-0.6
2022-11-21T04:16:01.179Z,-0.5
2022-11-21T04:17:01.179Z,-0.5
2022-11-21T04:18:07.197Z,-0.6
2022-11-21T04:19:01.172Z,-0.5
2022-11-21T04:20:01.128Z,-0.5
2022-11-21T04:21:01.101Z,-0.5
2022-11-21T04:22:01.294Z,-0.5
2022-11-21T04:23:09.766Z,-0.6
2022-11-21T04:24:01.466Z,-0.6
2022-11-21T04:25:02.102Z,-0.5
2022-11-21T04:26:01.516Z,-0.6
2022-11-21T04:27:01.516Z,-0.5
2022-11-21T04:28:12.943Z,-0.6
2022-11-21T04:29:01.070Z,-0.6
2022-11-21T04:30:01.382Z,-0.6
2022-11-21T04:31:02.274Z,-0.6
2022-11-21T04:32:01.161Z,-0.5
2022-11-21T04:33:15.128Z,-0.6
2022-11-21T04:34:01.372Z,-0.5
2022-11-21T04:35:01.090Z,-0.5
2022-11-21T04:36:01.099Z,-0.5
2022-11-21T04:37:01.369Z,-0.5
2022-11-21T04:38:01.122Z,-0.5
2022-11-21T04:39:00.728Z,-0.5
2022-11-21T04:40:00.377Z,-0.5
2022-11-21T04:40:59.996Z,-0.5
2022-11-21T04:41:59.805Z,-0.5
2022-11-21T04:43:01.724Z,-0.5
2022-11-21T04:44:02.051Z,-0.5
2022-11-21T04:45:01.425Z,-0.5
2022-11-21T04:46:01.065Z,-0.5
2022-11-21T04:47:05.332Z,-0.5
2022-11-21T04:48:01.152Z,-0.5
2022-11-21T04:49:01.056Z,-0.5
2022-11-21T04:50:01.091Z,-0.5
2022-11-21T04:51:01.396Z,-0.5
2022-11-21T04:52:01.387Z,-0.5
2022-11-21T04:53:01.399Z,-0.5
2022-11-21T04:54:02.172Z,-0.5
2022-11-21T04:55:01.120Z,-0.5
2022-11-21T04:56:01.098Z,-0.5
2022-11-21T04:57:01.100Z,-0.5
2022-11-21T04:58:01.048Z,-0.5
2022-11-21T04:59:01.126Z,-0.5
2022-11-21T05:00:01.579Z,-0.4
2022-11-21T05:01:01.258Z,-0.5
2022-11-21T05:02:01.683Z,-0.5
2022-11-21T05:03:01.208Z,-0.4
2022-11-21T05:04:00.851Z,-0.5
2022-11-21T05:05:00.583Z,-0.4
2022-11-21T05:06:00.262Z,-0.4
2022-11-21T05:07:00.002Z,-0.5
2022-11-21T05:07:59.624Z,-0.5
2022-11-21T05:09:01.368Z,-0.5
2022-11-21T05:10:01.493Z,-0.4
2022-11-21T05:11:01.054Z,-0.5
2022-11-21T05:12:01.088Z,-0.5
2022-11-21T05:13:01.111Z,-0.5
2022-11-21T05:14:01.705Z,-0.5
2022-11-21T05:15:01.493Z,-0.5
2022-11-21T05:16:01.201Z,-0.5
2022-11-21T05:17:01.144Z,-0.4
2022-11-21T05:18:01.263Z,-0.4
2022-11-21T05:19:01.775Z,-0.5
2022-11-21T05:20:01.058Z,-0.4
2022-11-21T05:21:01.595Z,-0.4
2022-11-21T05:22:01.774Z,-0.4
2022-11-21T05:23:01.265Z,-0.4
2022-11-21T05:24:01.146Z,-0.4
2022-11-21T05:25:01.076Z,-0.4
2022-11-21T05:26:01.093Z,-0.4
2022-11-21T05:27:01.098Z,-0.4
2022-11-21T05:28:01.094Z,-0.4
2022-11-21T05:29:01.043Z,-0.4
2022-11-21T05:30:01.243Z,-0.5
2022-11-21T05:31:02.348Z,-0.4
2022-11-21T05:32:02.441Z,-0.4
2022-11-21T05:33:01.013Z,-0.4
2022-11-21T05:34:00.661Z,-0.4
2022-11-21T05:35:00.320Z,-0.4
2022-11-21T05:36:00.013Z,-0.4
2022-11-21T05:36:59.607Z,-0.4
2022-11-21T05:38:01.199Z,-0.4
2022-11-21T05:39:01.867Z,-0.4
2022-11-21T05:40:01.869Z,-0.4
2022-11-21T05:41:01.433Z,-0.4
2022-11-21T05:42:03.142Z,-0.4
2022-11-21T05:43:02.639Z,-0.4
2022-11-21T05:44:02.908Z,-0.4
2022-11-21T05:45:01.210Z,-0.4
2022-11-21T05:46:02.442Z,-0.4
2022-11-21T05:47:01.127Z,-0.4
2022-11-21T05:48:01.168Z,-0.4
2022-11-21T05:49:00.888Z,-0.3
2022-11-21T05:50:01.507Z,-0.4
2022-11-21T05:51:00.736Z,-0.4
2022-11-21T05:52:00.329Z,-0.4
2022-11-21T05:53:00.040Z,-0.4
2022-11-21T05:54:04.425Z,-0.4
2022-11-21T05:55:01.058Z,-0.4
2022-11-21T05:56:01.425Z,-0.3
2022-11-21T05:57:01.454Z,-0.3
2022-11-21T05:58:01.456Z,-0.4
2022-11-21T05:59:07.592Z,-0.4
2022-11-21T06:00:01.134Z,-0.4
2022-11-21T06:01:01.094Z,-0.4
2022-11-21T06:02:01.115Z,-0.4
2022-11-21T06:03:01.162Z,-0.4
2022-11-21T06:04:11.463Z,-0.3
2022-11-21T06:05:00.808Z,-0.3
2022-11-21T06:06:00.378Z,-0.4
2022-11-21T06:07:00.142Z,-0.4
2022-11-21T06:07:59.769Z,-0.4
2022-11-21T06:09:14.585Z,-0.4
2022-11-21T06:10:01.099Z,-0.4
2022-11-21T06:11:01.731Z,-0.4
2022-11-21T06:12:01.971Z,-0.4
2022-11-21T06:13:02.408Z,-0.4
2022-11-21T06:14:16.775Z,-0.4
2022-11-21T06:15:01.096Z,-0.4
2022-11-21T06:16:01.052Z,-0.4
2022-11-21T06:17:01.079Z,-0.4
2022-11-21T06:18:01.113Z,-0.4
2022-11-21T06:19:01.100Z,-0.5
2022-11-21T06:20:01.146Z,-0.5
2022-11-21T06:21:01.221Z,-0.5
2022-11-21T06:22:01.127Z,-0.5
2022-11-21T06:23:01.367Z,-0.5
2022-11-21T06:24:01.379Z,-0.5
2022-11-21T06:25:02.049Z,-0.4
2022-11-21T06:26:01.148Z,-0.4
2022-11-21T06:27:01.711Z,-0.4
2022-11-21T06:28:01.292Z,-0.3
2022-11-21T06:29:02.332Z,-0.4
2022-11-21T06:30:01.241Z,-0.4
2022-11-21T06:31:01.871Z,-0.4
2022-11-21T06:32:01.882Z,-0.4
2022-11-21T06:33:02.028Z,-0.4
2022-11-21T06:34:01.239Z,-0.4
2022-11-21T06:35:01.137Z,-0.4
2022-11-21T06:36:01.114Z,-0.4
2022-11-21T06:37:01.122Z,-0.3
2022-11-21T06:38:01.148Z,-0.3
2022-11-21T06:39:01.129Z,-0.3
2022-11-21T06:40:01.315Z,-0.3
2022-11-21T06:41:01.427Z,-0.3
2022-11-21T06:42:01.398Z,-0.3
2022-11-21T06:43:01.423Z,-0.3
2022-11-21T06:44:02.075Z,-0.3
2022-11-21T06:45:01.070Z,-0.3
2022-11-21T06:46:01.089Z,-0.3
2022-11-21T06:47:01.222Z,-0.3
2022-11-21T06:48:01.130Z,-0.3
2022-11-21T06:49:01.164Z,-0.3
2022-11-21T06:50:01.583Z,-0.3
2022-11-21T06:51:01.226Z,-0.3
2022-11-21T06:52:01.112Z,-0.3
2022-11-21T06:53:00.838Z,-0.3
2022-11-21T06:54:00.399Z,-0.3
2022-11-21T06:55:00.001Z,-0.3
2022-11-21T06:55:59.627Z,-0.3
2022-11-21T06:57:01.193Z,-0.3
2022-11-21T06:58:01.594Z,-0.3
2022-11-21T06:59:01.293Z,-0.3
2022-11-21T07:00:02.030Z,-0.3
2022-11-21T07:01:02.043Z,-0.3
2022-11-21T07:02:01.954Z,-0.3
2022-11-21T07:03:03.333Z,-0.2
2022-11-21T07:04:01.095Z,-0.2
2022-11-21T07:05:01.095Z,-0.2
2022-11-21T07:06:01.103Z,-0.1
2022-11-21T07:07:01.100Z,-0.1
2022-11-21T07:08:01.236Z,-0.1
2022-11-21T07:10:01.243Z,-0.1
2022-11-21T07:11:24.274Z,-0.1
2022-11-21T07:12:02.596Z,-0.1
2022-11-21T07:13:01.641Z,-0.1
2022-11-21T07:14:06.233Z,-0.1
2022-11-21T07:15:01.483Z,-0.1
2022-11-21T07:16:01.158Z,-0.1
2022-11-21T07:17:01.057Z,-0.1
2022-11-21T07:18:01.063Z,-0.1
2022-11-21T07:19:04.556Z,-0.1
2022-11-21T07:20:01.286Z,-0.1
2022-11-21T07:21:04.015Z,-0.1
2022-11-21T07:22:01.223Z,-0.1
2022-11-21T07:23:01.143Z,-0.1
2022-11-21T07:24:01.217Z,-0.1
2022-11-21T07:25:02.236Z,-0.1
2022-11-21T07:26:01.142Z,-0.2
2022-11-21T07:27:01.139Z,-0.2
2022-11-21T07:28:01.125Z,-0.1
2022-11-21T07:29:01.135Z,-0.1
2022-11-21T07:30:01.290Z,-0.1
2022-11-21T07:31:01.359Z,-0.1
2022-11-21T07:32:01.529Z,-0.2
2022-11-21T07:33:01.950Z,-0.1
2022-11-21T07:34:01.443Z,-0.1
2022-11-21T07:35:02.697Z,-0.1
2022-11-21T07:36:01.070Z,-0.1
2022-11-21T07:37:01.082Z,-0.1
2022-11-21T07:38:01.196Z,-0.1
2022-11-21T07:39:01.152Z,-0.1
2022-11-21T07:40:06.105Z,-0.1
2022-11-21T07:41:02.127Z,-0.1
2022-11-21T07:42:01.402Z,-0.1
2022-11-21T07:43:01.112Z,-0.1
2022-11-21T07:44:01.130Z,-0.1
2022-11-21T07:45:08.482Z,-0.2
2022-11-21T07:46:01.434Z,-0.2
2022-11-21T07:47:01.152Z,-0.1
2022-11-21T07:48:01.153Z,-0.2
2022-11-21T07:49:03.514Z,-0.2
2022-11-21T07:50:10.597Z,-0.2
2022-11-21T07:51:01.923Z,-0.2
2022-11-21T07:52:01.607Z,-0.3
2022-11-21T07:53:00.674Z,-0.2
2022-11-21T07:54:00.393Z,-0.2
2022-11-21T07:55:12.620Z,-0.2
2022-11-21T07:56:02.126Z,-0.2
2022-11-21T07:57:01.909Z,-0.2
2022-11-21T07:58:01.121Z,-0.2
2022-11-21T07:59:01.128Z,-0.2
2022-11-21T08:00:16.632Z,-0.1
2022-11-21T08:01:01.242Z,-0.2
2022-11-21T08:02:02.068Z,-0.1
2022-11-21T08:03:01.288Z,-0.1
2022-11-21T08:04:01.144Z,-0.1
2022-11-21T08:05:01.156Z,-0.1
2022-11-21T08:06:01.072Z,-0.1
2022-11-21T08:07:01.170Z,-0.1
2022-11-21T08:08:01.428Z,-0.1
2022-11-21T08:09:01.176Z,-0.1
2022-11-21T08:10:01.321Z,-0.1
2022-11-21T08:11:01.085Z,-0.1
2022-11-21T08:12:01.341Z,-0.1
2022-11-21T08:13:00.784Z,-0.1
2022-11-21T08:14:00.383Z,-0.1
2022-11-21T08:14:59.970Z,-0.1
2022-11-21T08:15:59.695Z,-0.1
2022-11-21T08:17:01.384Z,-0.1
2022-11-21T08:18:02.169Z,-0.1
2022-11-21T08:19:01.753Z,-0.1
2022-11-21T08:20:01.947Z,-0.1
2022-11-21T08:21:01.437Z,-0.1
2022-11-21T08:22:01.250Z,-0.1
2022-11-21T08:23:01.464Z,-0.1
2022-11-21T08:24:01.587Z,-0.1
2022-11-21T08:25:01.464Z,-0.1
2022-11-21T08:26:01.089Z,-0.1
2022-11-21T08:27:01.099Z,-0.1
2022-11-21T08:28:00.784Z,-0.1
2022-11-21T08:29:00.517Z,0
2022-11-21T08:30:00.178Z,0
2022-11-21T08:31:00.247Z,0
2022-11-21T08:32:00.360Z,0
2022-11-21T08:33:00.374Z,0
2022-11-21T08:34:00.095Z,0
2022-11-21T08:34:59.686Z,0
2022-11-21T08:36:01.791Z,0
2022-11-21T08:37:01.461Z,0
2022-11-21T08:38:02.181Z,0
2022-11-21T08:39:01.267Z,0
2022-11-21T08:40:02.357Z,0
2022-11-21T08:41:01.563Z,0
2022-11-21T08:42:01.464Z,0
2022-11-21T08:43:01.122Z,0
2022-11-21T08:44:01.094Z,0.1
2022-11-21T08:45:01.091Z,0.1
2022-11-21T08:46:01.099Z,0.1
2022-11-21T08:47:01.444Z,0.1
2022-11-21T08:48:01.112Z,0.1
2022-11-21T08:49:01.123Z,0.1
2022-11-21T08:50:05.803Z,0.1
2022-11-21T08:51:01.129Z,0.1
2022-11-21T08:52:01.152Z,0.1
2022-11-21T08:53:00.831Z,0.2
2022-11-21T08:54:01.162Z,0.1
2022-11-21T08:55:01.121Z,0.1
2022-11-21T08:56:04.396Z,0.1
2022-11-21T08:57:01.600Z,0.1
2022-11-21T08:58:01.315Z,0.1
2022-11-21T08:59:02.808Z,0.1
2022-11-21T09:00:02.232Z,0.1
2022-11-21T09:01:01.915Z,0.1
2022-11-21T09:02:02.109Z,0.2
2022-11-21T09:03:01.117Z,0.2
2022-11-21T09:04:01.105Z,0.2
2022-11-21T09:05:01.113Z,0.2
2022-11-21T09:06:01.511Z,0.2
2022-11-21T09:07:01.218Z,0.2
2022-11-21T09:08:01.150Z,0.2
2022-11-21T09:09:01.144Z,0.2
2022-11-21T09:10:01.353Z,0.2
2022-11-21T09:11:01.154Z,0.3
2022-11-21T09:12:01.058Z,0.3
2022-11-21T09:13:00.769Z,0.3
2022-11-21T09:14:00.762Z,0.3
2022-11-21T09:15:00.348Z,0.3
2022-11-21T09:16:00.047Z,0.3
2022-11-21T09:17:02.326Z,0.3
2022-11-21T09:18:01.779Z,0.3
2022-11-21T09:19:01.105Z,0.3
2022-11-21T09:20:01.236Z,0.3
2022-11-21T09:21:01.313Z,0.3
2022-11-21T09:22:01.134Z,0.3
2022-11-21T09:23:01.431Z,0.3
2022-11-21T09:24:01.546Z,0.3
2022-11-21T09:25:01.232Z,0.3
2022-11-21T09:26:02.939Z,0.3
2022-11-21T09:27:01.162Z,0.3
2022-11-21T09:28:01.064Z,0.3
2022-11-21T09:29:01.078Z,0.3
2022-11-21T09:30:01.073Z,0.3
2022-11-21T09:31:05.777Z,0.3
2022-11-21T09:32:01.489Z,0.3
2022-11-21T09:33:01.570Z,0.3
2022-11-21T09:34:00.994Z,0.3
2022-11-21T09:35:01.064Z,0.3
2022-11-21T09:36:08.887Z,0.3
2022-11-21T09:37:01.787Z,0.3
2022-11-21T09:38:02.570Z,0.4
2022-11-21T09:39:01.422Z,0.4
2022-11-21T09:40:01.232Z,0.4
2022-11-21T09:41:11.649Z,0.4
2022-11-21T09:42:02.247Z,0.4
2022-11-21T09:43:01.248Z,0.4
2022-11-21T09:44:01.069Z,0.5
2022-11-21T09:45:01.059Z,0.5
2022-11-21T09:46:15.016Z,0.5
2022-11-21T09:47:01.072Z,0.5
2022-11-21T09:48:01.150Z,0.5
2022-11-21T09:49:01.228Z,0.5
2022-11-21T09:50:01.478Z,0.5
2022-11-21T09:51:01.203Z,0.5
2022-11-21T09:52:01.108Z,0.5
2022-11-21T09:53:01.217Z,0.5
2022-11-21T09:54:01.118Z,0.5
2022-11-21T09:55:01.347Z,0.5
2022-11-21T09:56:01.292Z,0.5
2022-11-21T09:57:01.491Z,0.5
2022-11-21T09:58:00.872Z,0.5
2022-11-21T09:59:00.549Z,0.6
2022-11-21T10:00:00.238Z,0.6
2022-11-21T10:01:00.000Z,0.6
2022-11-21T10:01:59.661Z,0.6
2022-11-21T10:03:01.320Z,0.6
2022-11-21T10:04:01.170Z,0.6
2022-11-21T10:05:01.101Z,0.6
2022-11-21T10:06:01.088Z,0.6
2022-11-21T10:07:01.558Z,0.6
2022-11-21T10:08:01.216Z,0.6
2022-11-21T10:09:02.717Z,0.6
2022-11-21T10:10:01.128Z,0.6
2022-11-21T10:11:08.160Z,0.6
2022-11-21T10:12:01.123Z,0.6
2022-11-21T10:13:01.150Z,0.6
2022-11-21T10:14:02.193Z,0.6
2022-11-21T10:15:01.101Z,0.5
2022-11-21T10:16:01.064Z,0.5
2022-11-21T10:17:01.181Z,0.5
2022-11-21T10:18:00.891Z,0.5
2022-11-21T10:19:00.652Z,0.5
2022-11-21T10:20:00.350Z,0.5
2022-11-21T10:21:00.040Z,0.5
2022-11-21T10:21:59.733Z,0.5
2022-11-21T10:23:01.549Z,0.5
2022-11-21T10:24:01.503Z,0.5
2022-11-21T10:25:02.120Z,0.5
2022-11-21T10:26:01.433Z,0.5
2022-11-21T10:27:02.128Z,0.5
2022-11-21T10:28:02.068Z,0.5
2022-11-21T10:29:01.215Z,0.5
2022-11-21T10:30:01.144Z,0.5
2022-11-21T10:31:01.142Z,0.5
2022-11-21T10:32:01.531Z,0.5
2022-11-21T10:33:00.859Z,0.5
2022-11-21T10:34:00.408Z,0.6
2022-11-21T10:35:00.029Z,0.6
2022-11-21T10:35:59.683Z,0.6
2022-11-21T10:37:01.757Z,0.6
2022-11-21T10:38:01.388Z,0.6
2022-11-21T10:39:01.252Z,0.6
2022-11-21T10:40:01.169Z,0.6
2022-11-21T10:41:01.707Z,0.6
2022-11-21T10:42:01.318Z,0.6
2022-11-21T10:43:02.052Z,0.6
2022-11-21T10:44:01.142Z,0.6
2022-11-21T10:45:01.126Z,0.7
2022-11-21T10:46:01.137Z,0.7
2022-11-21T10:47:01.144Z,0.7
2022-11-21T10:48:06.725Z,0.8
2022-11-21T10:49:01.654Z,0.8
2022-11-21T10:50:01.849Z,0.8
2022-11-21T10:51:01.846Z,0.8
2022-11-21T10:52:01.070Z,0.9
2022-11-21T10:53:00.863Z,0.8
2022-11-21T10:54:07.325Z,0.8
2022-11-21T10:55:01.061Z,0.8
2022-11-21T10:56:00.690Z,0.8
2022-11-21T10:57:00.275Z,0.8
2022-11-21T10:58:00.886Z,0.8
2022-11-21T10:59:01.147Z,0.8
2022-11-21T11:00:01.137Z,0.8
2022-11-21T11:01:01.212Z,0.8
2022-11-21T11:02:01.829Z,0.8
2022-11-21T11:03:02.104Z,0.8
2022-11-21T11:04:26.182Z,0.8
2022-11-21T11:05:01.053Z,0.8
2022-11-21T11:06:01.249Z,0.8
2022-11-21T11:07:00.888Z,0.8
2022-11-21T11:08:01.170Z,0.8
2022-11-21T11:09:01.074Z,0.8
2022-11-21T11:10:01.086Z,0.8
2022-11-21T11:11:01.844Z,0.8
2022-11-21T11:12:04.286Z,0.8
2022-11-21T11:13:02.134Z,0.8
2022-11-21T11:14:01.147Z,0.8
2022-11-21T11:15:01.127Z,0.8
2022-11-21T11:16:01.829Z,0.8
2022-11-21T11:17:06.578Z,0.8
2022-11-21T11:18:07.681Z,0.8
2022-11-21T11:19:01.239Z,0.8
2022-11-21T11:20:01.328Z,0.8
2022-11-21T11:21:01.156Z,0.9
2022-11-21T11:22:09.587Z,0.9
2022-11-21T11:23:01.165Z,0.9
2022-11-21T11:24:01.099Z,1
2022-11-21T11:25:01.775Z,1
2022-11-21T11:26:01.487Z,1
2022-11-21T11:27:11.166Z,1
2022-11-21T11:28:01.300Z,1
2022-11-21T11:29:01.125Z,0.9
2022-11-21T11:30:01.114Z,0.9
2022-11-21T11:31:01.113Z,0.9
2022-11-21T11:32:19.412Z,1
2022-11-21T11:33:01.325Z,0.9
2022-11-21T11:34:01.282Z,0.9
2022-11-21T11:35:01.602Z,0.9
2022-11-21T11:36:01.136Z,0.9
2022-11-21T11:37:15.843Z,0.9
2022-11-21T11:38:04.116Z,0.9
2022-11-21T11:39:01.977Z,0.9
2022-11-21T11:40:01.150Z,0.9
2022-11-21T11:41:01.272Z,0.9
2022-11-21T11:42:01.381Z,0.9
2022-11-21T11:43:02.271Z,1
2022-11-21T11:44:02.114Z,1
2022-11-21T11:45:02.118Z,1
2022-11-21T11:46:01.498Z,1
2022-11-21T11:47:01.230Z,1
2022-11-21T11:48:01.943Z,1
2022-11-21T11:49:19.766Z,1
2022-11-21T11:50:01.153Z,1
2022-11-21T11:51:01.136Z,1
2022-11-21T11:52:01.143Z,1
2022-11-21T11:53:01.176Z,1
2022-11-21T11:54:01.383Z,1
2022-11-21T11:55:01.159Z,1
2022-11-21T11:56:01.057Z,1
2022-11-21T11:57:01.076Z,1
2022-11-21T11:58:01.106Z,1
2022-11-21T11:59:01.488Z,1
2022-11-21T12:00:01.168Z,1
2022-11-21T12:01:01.320Z,1
2022-11-21T12:02:01.153Z,1.1
2022-11-21T12:03:01.131Z,1
2022-11-21T12:04:01.340Z,1.1
2022-11-21T12:05:01.116Z,1.1
2022-11-21T12:06:05.998Z,1.1
2022-11-21T12:09:01.428Z,1.1
2022-11-21T12:10:01.163Z,1.1
2022-11-21T12:11:01.178Z,1.1
2022-11-21T12:12:01.164Z,1.1
2022-11-21T12:13:01.466Z,1
2022-11-21T12:14:00.660Z,1
2022-11-21T12:15:00.265Z,1.1
2022-11-21T12:16:05.907Z,1.1
2022-11-21T12:17:01.159Z,1.1
2022-11-21T12:18:01.051Z,1
2022-11-21T12:19:01.107Z,1
2022-11-21T12:20:01.111Z,1.1
2022-11-21T12:21:01.111Z,1.1
2022-11-21T12:22:01.115Z,1.1
2022-11-21T12:23:01.518Z,1.1
2022-11-21T12:24:01.139Z,1.1
2022-11-21T12:25:01.149Z,1.1
2022-11-21T12:26:01.145Z,1.1
2022-11-21T12:27:01.149Z,1.1
2022-11-21T12:28:01.146Z,1.1
2022-11-21T12:29:01.050Z,1.1
2022-11-21T12:30:01.078Z,1.2
2022-11-21T12:31:01.083Z,1.2
2022-11-21T12:32:01.091Z,1.3
2022-11-21T12:33:07.963Z,1.3
2022-11-21T12:34:00.799Z,1.3
2022-11-21T12:35:00.371Z,1.3
2022-11-21T12:36:14.493Z,1.4
2022-11-21T12:37:01.109Z,1.4
2022-11-21T12:38:01.311Z,1.5
2022-11-21T12:39:01.378Z,1.5
2022-11-21T12:40:02.090Z,1.4
2022-11-21T12:41:01.479Z,1.4
2022-11-21T12:42:01.133Z,1.4
2022-11-21T12:43:01.164Z,1.3
2022-11-21T12:44:01.060Z,1.3
2022-11-21T12:45:01.207Z,1.3
2022-11-21T12:46:01.445Z,1.3
2022-11-21T12:47:01.070Z,1.3
2022-11-21T12:48:03.381Z,1.3
2022-11-21T12:49:01.074Z,1.3
2022-11-21T12:50:01.151Z,1.3
2022-11-21T12:51:01.160Z,1.3
2022-11-21T12:52:00.893Z,1.3
2022-11-21T12:53:04.982Z,1.3
2022-11-21T12:54:00.664Z,1.3
2022-11-21T12:55:00.395Z,1.3
2022-11-21T12:56:00.100Z,1.3
2022-11-21T12:57:00.094Z,1.3
2022-11-21T12:58:08.264Z,1.3
2022-11-21T12:59:01.770Z,1.2
2022-11-21T13:00:01.989Z,1.2
2022-11-21T13:01:01.962Z,1.2
2022-11-21T13:02:01.443Z,1.2
2022-11-21T13:03:10.803Z,1.2
2022-11-21T13:04:01.404Z,1.2
2022-11-21T13:05:01.406Z,1.2
2022-11-21T13:06:01.418Z,1.2
2022-11-21T13:07:01.574Z,1.2
2022-11-21T13:08:12.619Z,1.3
2022-11-21T13:09:01.307Z,1.3
2022-11-21T13:10:01.191Z,1.3
2022-11-21T13:11:01.135Z,1.3
2022-11-21T13:12:01.133Z,1.3
2022-11-21T13:13:14.251Z,1.3
2022-11-21T13:14:02.365Z,1.3
2022-11-21T13:15:01.150Z,1.3
2022-11-21T13:16:01.168Z,1.4
2022-11-21T13:17:01.151Z,1.4
2022-11-21T13:18:16.833Z,1.4
2022-11-21T13:19:01.067Z,1.4
2022-11-21T13:20:01.075Z,1.4
2022-11-21T13:21:01.085Z,1.4
2022-11-21T13:22:01.078Z,1.4
2022-11-21T13:23:01.103Z,1.4
2022-11-21T13:24:01.200Z,1.4
2022-11-21T13:25:01.392Z,1.4
2022-11-21T13:26:01.489Z,1.4
2022-11-21T13:27:01.121Z,1.4
2022-11-21T13:28:01.179Z,1.4
2022-11-21T13:29:01.038Z,1.5
2022-11-21T13:30:01.136Z,1.5
2022-11-21T13:31:01.166Z,1.5
2022-11-21T13:32:01.233Z,1.5
2022-11-21T13:33:01.169Z,1.5
2022-11-21T13:34:00.751Z,1.6